sensor_id;sensor_type;location;lat;lon;timestamp;P1;durP1;ratioP1;P2;durP2;ratioP2
7985;SDS011;4038;42.612;23.066;2022-11-20T00:01:13;20.73;;;19.23;;
7985;SDS011;4038;42.612;23.066;2022-11-20T00:03:43;20.58;;;19.25;;
7985;SDS011;4038;42.612;23.066;2022-11-20T00:06:10;20.40;;;19.10;;
7985;SDS011;4038;42.612;23.066;2022-11-20T00:08:38;21.67;;;20.15;;
7985;SDS011;4038;42.612;23.066;2022-11-20T00:11:07;21.48;;;19.90;;
7985;SDS011;4038;42.612;23.066;2022-11-20T00:13:34;20.98;;;19.38;;
7985;SDS011;4038;42.612;23.066;2022-11-20T00:16:00;20.10;;;18.60;;
7985;SDS011;4038;42.612;23.066;2022-11-20T00:18:27;20.40;;;19.00;;
7985;SDS011;4038;42.612;23.066;2022-11-20T00:20:53;21.38;;;19.80;;
7985;SDS011;4038;42.612;23.066;2022-11-20T00:23:19;20.80;;;19.35;;
7985;SDS011;4038;42.612;23.066;2022-11-20T00:25:44;20.75;;;19.30;;
7985;SDS011;4038;42.612;23.066;2022-11-20T00:28:10;21.30;;;19.60;;
7985;SDS011;4038;42.612;23.066;2022-11-20T00:30:35;20.70;;;19.30;;
7985;SDS011;4038;42.612;23.066;2022-11-20T00:33:01;20.50;;;19.10;;
7985;SDS011;4038;42.612;23.066;2022-11-20T00:35:26;20.23;;;18.70;;
7985;SDS011;4038;42.612;23.066;2022-11-20T00:37:51;20.77;;;19.38;;
7985;SDS011;4038;42.612;23.066;2022-11-20T00:40:17;20.92;;;19.52;;
7985;SDS011;4038;42.612;23.066;2022-11-20T00:42:42;20.70;;;19.05;;
7985;SDS011;4038;42.612;23.066;2022-11-20T00:45:07;19.98;;;18.50;;
7985;SDS011;4038;42.612;23.066;2022-11-20T00:47:33;20.50;;;19.00;;
7985;SDS011;4038;42.612;23.066;2022-11-20T00:49:59;20.10;;;18.70;;
7985;SDS011;4038;42.612;23.066;2022-11-20T00:52:24;20.95;;;19.50;;
7985;SDS011;4038;42.612;23.066;2022-11-20T00:54:50;20.40;;;19.00;;
7985;SDS011;4038;42.612;23.066;2022-11-20T00:57:15;20.48;;;19.17;;
7985;SDS011;4038;42.612;23.066;2022-11-20T00:59:40;20.58;;;19.17;;
7985;SDS011;4038;42.612;23.066;2022-11-20T01:02:06;20.30;;;18.80;;
7985;SDS011;4038;42.612;23.066;2022-11-20T01:04:31;20.38;;;18.85;;
7985;SDS011;4038;42.612;23.066;2022-11-20T01:06:56;21.50;;;19.80;;
7985;SDS011;4038;42.612;23.066;2022-11-20T01:09:22;21.08;;;19.23;;
7985;SDS011;4038;42.612;23.066;2022-11-20T01:11:47;19.58;;;18.17;;
7985;SDS011;4038;42.612;23.066;2022-11-20T01:14:14;19.27;;;17.98;;
7985;SDS011;4038;42.612;23.066;2022-11-20T01:16:43;20.38;;;18.67;;
7985;SDS011;4038;42.612;23.066;2022-11-20T01:19:20;20.17;;;18.67;;
7985;SDS011;4038;42.612;23.066;2022-11-20T01:21:48;20.52;;;19.02;;
7985;SDS011;4038;42.612;23.066;2022-11-20T01:24:17;20.08;;;18.67;;
7985;SDS011;4038;42.612;23.066;2022-11-20T01:26:44;20.60;;;19.20;;
7985;SDS011;4038;42.612;23.066;2022-11-20T01:29:17;20.80;;;19.17;;
7985;SDS011;4038;42.612;23.066;2022-11-20T01:31:46;20.55;;;19.05;;
7985;SDS011;4038;42.612;23.066;2022-11-20T01:34:15;21.13;;;19.75;;
7985;SDS011;4038;42.612;23.066;2022-11-20T01:36:43;20.60;;;18.77;;
7985;SDS011;4038;42.612;23.066;2022-11-20T01:39:13;20.08;;;18.52;;
7985;SDS011;4038;42.612;23.066;2022-11-20T01:41:44;20.13;;;18.65;;
7985;SDS011;4038;42.612;23.066;2022-11-20T01:47:12;19.95;;;18.73;;
7985;SDS011;4038;42.612;23.066;2022-11-20T01:49:48;20.55;;;19.05;;
7985;SDS011;4038;42.612;23.066;2022-11-20T01:52:19;20.50;;;19.08;;
7985;SDS011;4038;42.612;23.066;2022-11-20T01:55:09;21.35;;;19.65;;
7985;SDS011;4038;42.612;23.066;2022-11-20T01:57:40;19.75;;;18.25;;
7985;SDS011;4038;42.612;23.066;2022-11-20T02:00:10;20.00;;;18.50;;
7985;SDS011;4038;42.612;23.066;2022-11-20T02:02:39;20.65;;;19.27;;
7985;SDS011;4038;42.612;23.066;2022-11-20T02:05:27;20.40;;;19.00;;
7985;SDS011;4038;42.612;23.066;2022-11-20T02:07:59;19.88;;;18.38;;
7985;SDS011;4038;42.612;23.066;2022-11-20T02:10:25;20.27;;;18.90;;
7985;SDS011;4038;42.612;23.066;2022-11-20T02:12:52;19.92;;;18.60;;
7985;SDS011;4038;42.612;23.066;2022-11-20T02:15:37;19.77;;;18.30;;
7985;SDS011;4038;42.612;23.066;2022-11-20T02:18:02;19.85;;;18.55;;
7985;SDS011;4038;42.612;23.066;2022-11-20T02:20:28;20.15;;;18.85;;
7985;SDS011;4038;42.612;23.066;2022-11-20T02:25:24;19.63;;;18.23;;
7985;SDS011;4038;42.612;23.066;2022-11-20T02:27:51;20.30;;;19.00;;
7985;SDS011;4038;42.612;23.066;2022-11-20T02:30:17;19.55;;;18.10;;
7985;SDS011;4038;42.612;23.066;2022-11-20T02:32:43;20.20;;;18.80;;
7985;SDS011;4038;42.612;23.066;2022-11-20T02:37:49;21.30;;;19.80;;
7985;SDS011;4038;42.612;23.066;2022-11-20T02:40:18;20.27;;;18.90;;
7985;SDS011;4038;42.612;23.066;2022-11-20T02:42:43;19.90;;;18.42;;
7985;SDS011;4038;42.612;23.066;2022-11-20T02:45:09;21.05;;;19.33;;
7985;SDS011;4038;42.612;23.066;2022-11-20T02:47:34;21.67;;;20.00;;
7985;SDS011;4038;42.612;23.066;2022-11-20T02:50:00;20.40;;;19.08;;
7985;SDS011;4038;42.612;23.066;2022-11-20T02:52:25;20.52;;;19.13;;
7985;SDS011;4038;42.612;23.066;2022-11-20T02:54:51;20.58;;;19.17;;
7985;SDS011;4038;42.612;23.066;2022-11-20T02:57:17;20.98;;;19.40;;
7985;SDS011;4038;42.612;23.066;2022-11-20T02:59:42;20.38;;;18.88;;
7985;SDS011;4038;42.612;23.066;2022-11-20T03:02:08;20.80;;;19.30;;
7985;SDS011;4038;42.612;23.066;2022-11-20T03:04:33;20.35;;;18.85;;
7985;SDS011;4038;42.612;23.066;2022-11-20T03:06:58;20.52;;;19.00;;
7985;SDS011;4038;42.612;23.066;2022-11-20T03:09:24;20.75;;;19.25;;
7985;SDS011;4038;42.612;23.066;2022-11-20T03:11:49;20.20;;;18.80;;
7985;SDS011;4038;42.612;23.066;2022-11-20T03:14:14;20.65;;;19.13;;
7985;SDS011;4038;42.612;23.066;2022-11-20T03:16:40;21.40;;;19.95;;
7985;SDS011;4038;42.612;23.066;2022-11-20T03:19:06;20.98;;;19.58;;
7985;SDS011;4038;42.612;23.066;2022-11-20T03:21:34;20.60;;;19.30;;
7985;SDS011;4038;42.612;23.066;2022-11-20T03:24:00;20.98;;;19.38;;
7985;SDS011;4038;42.612;23.066;2022-11-20T03:26:27;21.23;;;19.58;;
7985;SDS011;4038;42.612;23.066;2022-11-20T03:28:57;20.70;;;19.30;;
7985;SDS011;4038;42.612;23.066;2022-11-20T03:31:24;20.52;;;19.17;;
7985;SDS011;4038;42.612;23.066;2022-11-20T03:33:55;20.10;;;18.70;;
7985;SDS011;4038;42.612;23.066;2022-11-20T03:36:21;20.10;;;18.80;;
7985;SDS011;4038;42.612;23.066;2022-11-20T03:38:47;20.10;;;18.80;;
7985;SDS011;4038;42.612;23.066;2022-11-20T03:41:21;20.30;;;18.73;;
7985;SDS011;4038;42.612;23.066;2022-11-20T03:43:49;20.30;;;18.90;;
7985;SDS011;4038;42.612;23.066;2022-11-20T03:46:19;20.00;;;18.70;;
7985;SDS011;4038;42.612;23.066;2022-11-20T03:48:45;21.88;;;19.95;;
7985;SDS011;4038;42.612;23.066;2022-11-20T03:53:37;20.23;;;18.73;;
7985;SDS011;4038;42.612;23.066;2022-11-20T03:56:03;19.98;;;18.67;;
7985;SDS011;4038;42.612;23.066;2022-11-20T03:58:29;20.80;;;19.20;;
7985;SDS011;4038;42.612;23.066;2022-11-20T04:00:54;21.00;;;19.52;;
7985;SDS011;4038;42.612;23.066;2022-11-20T04:03:20;20.13;;;18.73;;
7985;SDS011;4038;42.612;23.066;2022-11-20T04:05:45;20.85;;;19.35;;
7985;SDS011;4038;42.612;23.066;2022-11-20T04:08:10;21.45;;;19.60;;
7985;SDS011;4038;42.612;23.066;2022-11-20T04:10:36;20.52;;;18.77;;
7985;SDS011;4038;42.612;23.066;2022-11-20T04:13:01;19.80;;;18.50;;
7985;SDS011;4038;42.612;23.066;2022-11-20T04:15:27;20.65;;;19.23;;
7985;SDS011;4038;42.612;23.066;2022-11-20T04:17:53;20.48;;;19.08;;
7985;SDS011;4038;42.612;23.066;2022-11-20T04:20:19;20.77;;;19.38;;
7985;SDS011;4038;42.612;23.066;2022-11-20T04:22:44;21.23;;;19.83;;
7985;SDS011;4038;42.612;23.066;2022-11-20T04:25:10;19.95;;;18.48;;
7985;SDS011;4038;42.612;23.066;2022-11-20T04:27:35;21.20;;;19.70;;
7985;SDS011;4038;42.612;23.066;2022-11-20T04:30:00;21.27;;;19.83;;
7985;SDS011;4038;42.612;23.066;2022-11-20T04:32:26;20.88;;;19.48;;
7985;SDS011;4038;42.612;23.066;2022-11-20T04:34:51;20.95;;;19.55;;
7985;SDS011;4038;42.612;23.066;2022-11-20T04:37:17;20.38;;;18.52;;
7985;SDS011;4038;42.612;23.066;2022-11-20T04:39:42;20.42;;;18.90;;
7985;SDS011;4038;42.612;23.066;2022-11-20T04:42:08;20.90;;;19.50;;
7985;SDS011;4038;42.612;23.066;2022-11-20T04:44:53;20.73;;;19.33;;
7985;SDS011;4038;42.612;23.066;2022-11-20T04:47:18;20.40;;;19.00;;
7985;SDS011;4038;42.612;23.066;2022-11-20T04:49:44;19.98;;;18.67;;
7985;SDS011;4038;42.612;23.066;2022-11-20T04:52:09;20.08;;;18.75;;
7985;SDS011;4038;42.612;23.066;2022-11-20T04:54:34;20.77;;;19.42;;
7985;SDS011;4038;42.612;23.066;2022-11-20T04:57:00;20.80;;;19.42;;
7985;SDS011;4038;42.612;23.066;2022-11-20T04:59:25;21.02;;;19.42;;
7985;SDS011;4038;42.612;23.066;2022-11-20T05:01:50;20.98;;;19.50;;
7985;SDS011;4038;42.612;23.066;2022-11-20T05:04:16;20.45;;;19.05;;
7985;SDS011;4038;42.612;23.066;2022-11-20T05:06:41;20.40;;;19.02;;
7985;SDS011;4038;42.612;23.066;2022-11-20T05:09:07;20.70;;;19.40;;
7985;SDS011;4038;42.612;23.066;2022-11-20T05:11:32;20.48;;;19.08;;
7985;SDS011;4038;42.612;23.066;2022-11-20T05:13:58;21.25;;;19.85;;
7985;SDS011;4038;42.612;23.066;2022-11-20T05:16:24;20.73;;;19.33;;
7985;SDS011;4038;42.612;23.066;2022-11-20T05:18:50;21.80;;;20.20;;
7985;SDS011;4038;42.612;23.066;2022-11-20T05:21:17;21.02;;;19.70;;
7985;SDS011;4038;42.612;23.066;2022-11-20T05:23:43;21.15;;;19.55;;
7985;SDS011;4038;42.612;23.066;2022-11-20T05:26:13;21.92;;;20.42;;
7985;SDS011;4038;42.612;23.066;2022-11-20T05:28:43;20.73;;;19.38;;
7985;SDS011;4038;42.612;23.066;2022-11-20T05:31:09;21.45;;;20.05;;
7985;SDS011;4038;42.612;23.066;2022-11-20T05:33:39;21.40;;;19.77;;
7985;SDS011;4038;42.612;23.066;2022-11-20T05:36:05;20.85;;;19.38;;
7985;SDS011;4038;42.612;23.066;2022-11-20T05:38:31;22.45;;;20.77;;
7985;SDS011;4038;42.612;23.066;2022-11-20T05:41:30;21.17;;;19.73;;
7985;SDS011;4038;42.612;23.066;2022-11-20T05:43:49;20.83;;;19.42;;
7985;SDS011;4038;42.612;23.066;2022-11-20T05:46:16;20.88;;;19.30;;
7985;SDS011;4038;42.612;23.066;2022-11-20T05:48:44;21.67;;;20.15;;
7985;SDS011;4038;42.612;23.066;2022-11-20T05:51:11;21.58;;;19.98;;
7985;SDS011;4038;42.612;23.066;2022-11-20T05:53:39;20.60;;;19.10;;
7985;SDS011;4038;42.612;23.066;2022-11-20T05:56:12;20.98;;;19.48;;
7985;SDS011;4038;42.612;23.066;2022-11-20T05:58:39;21.38;;;19.98;;
7985;SDS011;4038;42.612;23.066;2022-11-20T06:03:55;21.80;;;20.30;;
7985;SDS011;4038;42.612;23.066;2022-11-20T06:06:20;21.42;;;19.60;;
7985;SDS011;4038;42.612;23.066;2022-11-20T06:08:46;21.42;;;19.92;;
7985;SDS011;4038;42.612;23.066;2022-11-20T06:11:12;21.83;;;20.42;;
7985;SDS011;4038;42.612;23.066;2022-11-20T06:13:39;21.25;;;19.75;;
7985;SDS011;4038;42.612;23.066;2022-11-20T06:16:05;21.33;;;19.83;;
7985;SDS011;4038;42.612;23.066;2022-11-20T06:18:30;21.92;;;20.30;;
7985;SDS011;4038;42.612;23.066;2022-11-20T06:21:00;21.05;;;19.75;;
7985;SDS011;4038;42.612;23.066;2022-11-20T06:23:36;22.00;;;20.60;;
7985;SDS011;4038;42.612;23.066;2022-11-20T06:26:03;20.98;;;19.58;;
7985;SDS011;4038;42.612;23.066;2022-11-20T06:28:36;22.55;;;20.83;;
7985;SDS011;4038;42.612;23.066;2022-11-20T06:31:02;21.90;;;20.33;;
7985;SDS011;4038;42.612;23.066;2022-11-20T06:33:28;22.30;;;20.65;;
7985;SDS011;4038;42.612;23.066;2022-11-20T06:35:57;21.42;;;19.92;;
7985;SDS011;4038;42.612;23.066;2022-11-20T06:38:23;21.75;;;20.35;;
7985;SDS011;4038;42.612;23.066;2022-11-20T06:40:49;22.33;;;20.90;;
7985;SDS011;4038;42.612;23.066;2022-11-20T06:43:15;22.90;;;21.38;;
7985;SDS011;4038;42.612;23.066;2022-11-20T06:45:41;22.08;;;20.40;;
7985;SDS011;4038;42.612;23.066;2022-11-20T06:48:06;22.20;;;20.60;;
7985;SDS011;4038;42.612;23.066;2022-11-20T06:50:31;22.10;;;20.55;;
7985;SDS011;4038;42.612;23.066;2022-11-20T06:53:00;22.55;;;21.05;;
7985;SDS011;4038;42.612;23.066;2022-11-20T06:55:26;22.17;;;20.63;;
7985;SDS011;4038;42.612;23.066;2022-11-20T06:57:51;23.38;;;21.77;;
7985;SDS011;4038;42.612;23.066;2022-11-20T07:00:16;23.38;;;21.77;;
7985;SDS011;4038;42.612;23.066;2022-11-20T07:02:42;24.55;;;22.85;;
7985;SDS011;4038;42.612;23.066;2022-11-20T07:05:07;23.27;;;21.40;;
7985;SDS011;4038;42.612;23.066;2022-11-20T07:07:33;24.35;;;22.65;;
7985;SDS011;4038;42.612;23.066;2022-11-20T07:09:58;23.23;;;21.73;;
7985;SDS011;4038;42.612;23.066;2022-11-20T07:12:23;22.92;;;21.23;;
7985;SDS011;4038;42.612;23.066;2022-11-20T07:14:49;21.70;;;20.20;;
7985;SDS011;4038;42.612;23.066;2022-11-20T07:17:14;24.83;;;22.90;;
7985;SDS011;4038;42.612;23.066;2022-11-20T07:19:41;23.67;;;21.90;;
7985;SDS011;4038;42.612;23.066;2022-11-20T07:22:07;22.05;;;20.27;;
7985;SDS011;4038;42.612;23.066;2022-11-20T07:24:33;22.67;;;20.80;;
7985;SDS011;4038;42.612;23.066;2022-11-20T07:26:58;22.50;;;20.70;;
7985;SDS011;4038;42.612;23.066;2022-11-20T07:29:24;22.48;;;20.58;;
7985;SDS011;4038;42.612;23.066;2022-11-20T07:31:49;21.50;;;20.05;;
7985;SDS011;4038;42.612;23.066;2022-11-20T07:34:15;22.02;;;20.52;;
7985;SDS011;4038;42.612;23.066;2022-11-20T07:36:40;22.95;;;21.20;;
7985;SDS011;4038;42.612;23.066;2022-11-20T07:39:05;22.48;;;20.98;;
7985;SDS011;4038;42.612;23.066;2022-11-20T07:41:31;22.38;;;20.60;;
7985;SDS011;4038;42.612;23.066;2022-11-20T07:43:56;23.33;;;21.83;;
7985;SDS011;4038;42.612;23.066;2022-11-20T07:46:22;24.65;;;22.73;;
7985;SDS011;4038;42.612;23.066;2022-11-20T07:48:47;22.75;;;20.98;;
7985;SDS011;4038;42.612;23.066;2022-11-20T07:51:12;23.33;;;21.52;;
7985;SDS011;4038;42.612;23.066;2022-11-20T07:53:38;24.25;;;22.30;;
7985;SDS011;4038;42.612;23.066;2022-11-20T07:56:04;25.77;;;23.67;;
7985;SDS011;4038;42.612;23.066;2022-11-20T07:58:30;22.38;;;20.70;;
7985;SDS011;4038;42.612;23.066;2022-11-20T08:00:57;25.05;;;22.95;;
7985;SDS011;4038;42.612;23.066;2022-11-20T08:03:23;24.73;;;22.73;;
7985;SDS011;4038;42.612;23.066;2022-11-20T08:05:48;23.60;;;22.00;;
7985;SDS011;4038;42.612;23.066;2022-11-20T08:08:14;23.02;;;21.38;;
7985;SDS011;4038;42.612;23.066;2022-11-20T08:10:39;27.52;;;25.35;;
7985;SDS011;4038;42.612;23.066;2022-11-20T08:13:05;28.20;;;26.17;;
7985;SDS011;4038;42.612;23.066;2022-11-20T08:15:49;27.70;;;25.50;;
7985;SDS011;4038;42.612;23.066;2022-11-20T08:18:18;27.48;;;25.27;;
7985;SDS011;4038;42.612;23.066;2022-11-20T08:20:44;27.27;;;25.08;;
7985;SDS011;4038;42.612;23.066;2022-11-20T08:23:10;27.40;;;25.13;;
7985;SDS011;4038;42.612;23.066;2022-11-20T08:25:36;26.48;;;24.48;;
7985;SDS011;4038;42.612;23.066;2022-11-20T08:28:03;26.80;;;24.60;;
7985;SDS011;4038;42.612;23.066;2022-11-20T08:30:31;27.48;;;25.25;;
7985;SDS011;4038;42.612;23.066;2022-11-20T08:33:00;26.85;;;24.52;;
7985;SDS011;4038;42.612;23.066;2022-11-20T08:35:28;24.90;;;22.90;;
7985;SDS011;4038;42.612;23.066;2022-11-20T08:37:57;25.10;;;23.10;;
7985;SDS011;4038;42.612;23.066;2022-11-20T08:40:22;25.10;;;23.20;;
7985;SDS011;4038;42.612;23.066;2022-11-20T08:42:48;26.38;;;24.23;;
7985;SDS011;4038;42.612;23.066;2022-11-20T08:45:15;25.75;;;23.83;;
7985;SDS011;4038;42.612;23.066;2022-11-20T08:47:42;26.90;;;24.77;;
7985;SDS011;4038;42.612;23.066;2022-11-20T08:50:12;25.92;;;24.02;;
7985;SDS011;4038;42.612;23.066;2022-11-20T08:52:39;27.02;;;25.02;;
7985;SDS011;4038;42.612;23.066;2022-11-20T08:55:05;25.38;;;23.38;;
7985;SDS011;4038;42.612;23.066;2022-11-20T08:57:34;26.08;;;24.08;;
7985;SDS011;4038;42.612;23.066;2022-11-20T09:00:03;25.33;;;23.25;;
7985;SDS011;4038;42.612;23.066;2022-11-20T09:02:30;24.23;;;22.30;;
7985;SDS011;4038;42.612;23.066;2022-11-20T09:04:55;25.17;;;23.27;;
7985;SDS011;4038;42.612;23.066;2022-11-20T09:07:21;27.02;;;24.55;;
7985;SDS011;4038;42.612;23.066;2022-11-20T09:09:46;26.10;;;24.10;;
7985;SDS011;4038;42.612;23.066;2022-11-20T09:12:12;27.70;;;25.52;;
7985;SDS011;4038;42.612;23.066;2022-11-20T09:14:38;26.10;;;24.20;;
7985;SDS011;4038;42.612;23.066;2022-11-20T09:17:04;25.27;;;23.20;;
7985;SDS011;4038;42.612;23.066;2022-11-20T09:19:29;26.20;;;24.02;;
7985;SDS011;4038;42.612;23.066;2022-11-20T09:21:54;25.25;;;23.45;;
7985;SDS011;4038;42.612;23.066;2022-11-20T09:24:20;25.60;;;23.70;;
7985;SDS011;4038;42.612;23.066;2022-11-20T09:26:48;25.17;;;23.10;;
7985;SDS011;4038;42.612;23.066;2022-11-20T09:29:13;25.38;;;23.27;;
7985;SDS011;4038;42.612;23.066;2022-11-20T09:31:39;25.30;;;23.42;;
7985;SDS011;4038;42.612;23.066;2022-11-20T09:34:04;23.60;;;21.80;;
7985;SDS011;4038;42.612;23.066;2022-11-20T09:36:29;23.85;;;21.95;;
7985;SDS011;4038;42.612;23.066;2022-11-20T09:38:55;23.70;;;21.95;;
7985;SDS011;4038;42.612;23.066;2022-11-20T09:49:15;24.98;;;22.85;;
7985;SDS011;4038;42.612;23.066;2022-11-20T09:54:22;26.15;;;24.02;;
7985;SDS011;4038;42.612;23.066;2022-11-20T09:57:05;23.70;;;21.25;;
7985;SDS011;4038;42.612;23.066;2022-11-20T09:59:43;23.30;;;21.30;;
7985;SDS011;4038;42.612;23.066;2022-11-20T10:07:53;22.52;;;20.88;;
7985;SDS011;4038;42.612;23.066;2022-11-20T10:10:45;24.00;;;22.10;;
7985;SDS011;4038;42.612;23.066;2022-11-20T10:18:36;26.02;;;23.60;;
7985;SDS011;4038;42.612;23.066;2022-11-20T10:21:29;24.63;;;22.67;;
7985;SDS011;4038;42.612;23.066;2022-11-20T10:29:39;24.38;;;21.98;;
7985;SDS011;4038;42.612;23.066;2022-11-20T10:32:10;23.90;;;21.60;;
7985;SDS011;4038;42.612;23.066;2022-11-20T10:34:51;22.85;;;21.00;;
7985;SDS011;4038;42.612;23.066;2022-11-20T10:37:27;24.98;;;22.70;;
7985;SDS011;4038;42.612;23.066;2022-11-20T10:45:58;24.05;;;21.85;;
7985;SDS011;4038;42.612;23.066;2022-11-20T10:48:28;22.65;;;20.65;;
7985;SDS011;4038;42.612;23.066;2022-11-20T10:50:59;20.92;;;19.23;;
7985;SDS011;4038;42.612;23.066;2022-11-20T10:56:27;22.35;;;20.65;;
7985;SDS011;4038;42.612;23.066;2022-11-20T11:02:14;23.17;;;21.48;;
7985;SDS011;4038;42.612;23.066;2022-11-20T11:04:46;21.63;;;20.02;;
7985;SDS011;4038;42.612;23.066;2022-11-20T11:07:30;23.55;;;21.85;;
7985;SDS011;4038;42.612;23.066;2022-11-20T11:10:01;23.00;;;21.30;;
7985;SDS011;4038;42.612;23.066;2022-11-20T11:12:27;23.35;;;21.65;;
7985;SDS011;4038;42.612;23.066;2022-11-20T11:14:54;23.42;;;21.73;;
7985;SDS011;4038;42.612;23.066;2022-11-20T11:22:29;23.20;;;21.60;;
7985;SDS011;4038;42.612;23.066;2022-11-20T11:24:57;22.58;;;21.08;;
7985;SDS011;4038;42.612;23.066;2022-11-20T11:27:22;21.58;;;20.08;;
7985;SDS011;4038;42.612;23.066;2022-11-20T11:29:47;24.00;;;22.30;;
7985;SDS011;4038;42.612;23.066;2022-11-20T11:35:02;22.30;;;20.80;;
7985;SDS011;4038;42.612;23.066;2022-11-20T11:37:45;25.88;;;24.08;;
7985;SDS011;4038;42.612;23.066;2022-11-20T11:40:12;24.15;;;22.45;;
7985;SDS011;4038;42.612;23.066;2022-11-20T11:42:42;24.58;;;22.77;;
7985;SDS011;4038;42.612;23.066;2022-11-20T11:45:14;23.00;;;21.40;;
7985;SDS011;4038;42.612;23.066;2022-11-20T11:50:17;22.35;;;20.75;;
7985;SDS011;4038;42.612;23.066;2022-11-20T12:00:49;22.25;;;20.75;;
7985;SDS011;4038;42.612;23.066;2022-11-20T12:03:21;21.90;;;20.40;;
7985;SDS011;4038;42.612;23.066;2022-11-20T12:05:57;21.92;;;20.42;;
7985;SDS011;4038;42.612;23.066;2022-11-20T12:08:43;21.40;;;19.90;;
7985;SDS011;4038;42.612;23.066;2022-11-20T12:11:30;22.02;;;20.52;;
7985;SDS011;4038;42.612;23.066;2022-11-20T12:16:27;21.58;;;20.17;;
7985;SDS011;4038;42.612;23.066;2022-11-20T12:18:55;23.15;;;21.65;;
7985;SDS011;4038;42.612;23.066;2022-11-20T12:29:41;22.50;;;20.98;;
7985;SDS011;4038;42.612;23.066;2022-11-20T12:43:29;25.70;;;23.60;;
7985;SDS011;4038;42.612;23.066;2022-11-20T13:07:58;24.08;;;21.80;;
7985;SDS011;4038;42.612;23.066;2022-11-20T13:13:18;27.88;;;23.15;;
7985;SDS011;4038;42.612;23.066;2022-11-20T13:18:57;26.25;;;22.90;;
7985;SDS011;4038;42.612;23.066;2022-11-20T13:24:06;27.02;;;23.20;;
7985;SDS011;4038;42.612;23.066;2022-11-20T13:29:32;25.85;;;23.20;;
7985;SDS011;4038;42.612;23.066;2022-11-20T13:32:03;27.38;;;24.67;;
7985;SDS011;4038;42.612;23.066;2022-11-20T13:34:31;25.42;;;22.80;;
7985;SDS011;4038;42.612;23.066;2022-11-20T13:36:57;27.05;;;23.95;;
7985;SDS011;4038;42.612;23.066;2022-11-20T13:39:29;27.10;;;23.58;;
7985;SDS011;4038;42.612;23.066;2022-11-20T13:41:58;26.33;;;23.88;;
7985;SDS011;4038;42.612;23.066;2022-11-20T13:45:00;27.23;;;24.25;;
7985;SDS011;4038;42.612;23.066;2022-11-20T13:47:28;26.42;;;23.77;;
7985;SDS011;4038;42.612;23.066;2022-11-20T13:49:54;31.05;;;24.80;;
7985;SDS011;4038;42.612;23.066;2022-11-20T14:00:15;24.05;;;21.95;;
7985;SDS011;4038;42.612;23.066;2022-11-20T14:03:30;24.73;;;22.48;;
7985;SDS011;4038;42.612;23.066;2022-11-20T14:05:32;24.58;;;22.33;;
7985;SDS011;4038;42.612;23.066;2022-11-20T14:08:05;25.02;;;22.65;;
7985;SDS011;4038;42.612;23.066;2022-11-20T14:10:37;27.02;;;24.63;;
7985;SDS011;4038;42.612;23.066;2022-11-20T14:13:12;25.10;;;23.05;;
7985;SDS011;4038;42.612;23.066;2022-11-20T14:15:42;24.95;;;22.65;;
7985;SDS011;4038;42.612;23.066;2022-11-20T14:18:15;23.55;;;21.30;;
7985;SDS011;4038;42.612;23.066;2022-11-20T14:20:45;25.10;;;22.30;;
7985;SDS011;4038;42.612;23.066;2022-11-20T14:23:11;24.80;;;22.48;;
7985;SDS011;4038;42.612;23.066;2022-11-20T14:25:37;24.67;;;21.65;;
7985;SDS011;4038;42.612;23.066;2022-11-20T14:28:10;24.55;;;22.13;;
7985;SDS011;4038;42.612;23.066;2022-11-20T14:30:44;24.80;;;22.30;;
7985;SDS011;4038;42.612;23.066;2022-11-20T14:33:13;23.98;;;21.77;;
7985;SDS011;4038;42.612;23.066;2022-11-20T14:35:47;23.55;;;21.13;;
7985;SDS011;4038;42.612;23.066;2022-11-20T14:38:15;23.17;;;20.83;;
7985;SDS011;4038;42.612;23.066;2022-11-20T14:40:43;25.10;;;22.70;;
7985;SDS011;4038;42.612;23.066;2022-11-20T14:43:20;26.35;;;23.48;;
7985;SDS011;4038;42.612;23.066;2022-11-20T14:48:33;26.90;;;24.13;;
7985;SDS011;4038;42.612;23.066;2022-11-20T14:51:04;25.02;;;22.52;;
7985;SDS011;4038;42.612;23.066;2022-11-20T14:53:29;25.92;;;23.13;;
7985;SDS011;4038;42.612;23.066;2022-11-20T14:55:55;33.45;;;29.83;;
7985;SDS011;4038;42.612;23.066;2022-11-20T14:58:27;28.17;;;25.23;;
7985;SDS011;4038;42.612;23.066;2022-11-20T15:00:55;25.20;;;22.58;;
7985;SDS011;4038;42.612;23.066;2022-11-20T15:03:40;25.30;;;22.80;;
7985;SDS011;4038;42.612;23.066;2022-11-20T15:06:06;26.25;;;23.15;;
7985;SDS011;4038;42.612;23.066;2022-11-20T15:08:35;25.42;;;22.80;;
7985;SDS011;4038;42.612;23.066;2022-11-20T15:11:01;24.27;;;21.67;;
7985;SDS011;4038;42.612;23.066;2022-11-20T15:13:34;24.17;;;21.92;;
7985;SDS011;4038;42.612;23.066;2022-11-20T15:16:03;20.38;;;19.17;;
7985;SDS011;4038;42.612;23.066;2022-11-20T15:18:37;20.38;;;18.98;;
7985;SDS011;4038;42.612;23.066;2022-11-20T15:21:10;19.08;;;17.88;;
7985;SDS011;4038;42.612;23.066;2022-11-20T15:23:37;21.52;;;19.98;;
7985;SDS011;4038;42.612;23.066;2022-11-20T15:26:06;20.65;;;19.25;;
7985;SDS011;4038;42.612;23.066;2022-11-20T15:28:35;22.10;;;20.55;;
7985;SDS011;4038;42.612;23.066;2022-11-20T15:31:04;24.90;;;23.10;;
7985;SDS011;4038;42.612;23.066;2022-11-20T15:33:30;24.25;;;22.38;;
7985;SDS011;4038;42.612;23.066;2022-11-20T15:35:56;23.52;;;21.73;;
7985;SDS011;4038;42.612;23.066;2022-11-20T15:38:21;23.50;;;21.60;;
7985;SDS011;4038;42.612;23.066;2022-11-20T15:40:47;23.83;;;22.13;;
7985;SDS011;4038;42.612;23.066;2022-11-20T15:43:13;23.13;;;21.42;;
7985;SDS011;4038;42.612;23.066;2022-11-20T15:45:43;23.25;;;21.55;;
7985;SDS011;4038;42.612;23.066;2022-11-20T15:48:30;22.17;;;20.58;;
7985;SDS011;4038;42.612;23.066;2022-11-20T15:51:11;23.27;;;21.58;;
7985;SDS011;4038;42.612;23.066;2022-11-20T15:53:46;24.48;;;22.50;;
7985;SDS011;4038;42.612;23.066;2022-11-20T15:56:12;23.77;;;21.98;;
7985;SDS011;4038;42.612;23.066;2022-11-20T15:58:38;24.35;;;22.65;;
7985;SDS011;4038;42.612;23.066;2022-11-20T16:01:04;24.50;;;22.40;;
7985;SDS011;4038;42.612;23.066;2022-11-20T16:03:29;23.50;;;21.48;;
7985;SDS011;4038;42.612;23.066;2022-11-20T16:05:55;22.70;;;21.00;;
7985;SDS011;4038;42.612;23.066;2022-11-20T16:08:20;23.90;;;22.08;;
7985;SDS011;4038;42.612;23.066;2022-11-20T16:10:46;22.50;;;20.77;;
7985;SDS011;4038;42.612;23.066;2022-11-20T16:13:15;20.63;;;19.13;;
7985;SDS011;4038;42.612;23.066;2022-11-20T16:16:05;19.98;;;18.58;;
7985;SDS011;4038;42.612;23.066;2022-11-20T16:18:34;19.13;;;17.77;;
7985;SDS011;4038;42.612;23.066;2022-11-20T16:21:00;20.77;;;19.27;;
7985;SDS011;4038;42.612;23.066;2022-11-20T16:23:25;21.95;;;20.05;;
7985;SDS011;4038;42.612;23.066;2022-11-20T16:25:51;20.33;;;18.83;;
7985;SDS011;4038;42.612;23.066;2022-11-20T16:28:17;20.52;;;19.13;;
7985;SDS011;4038;42.612;23.066;2022-11-20T16:30:42;19.27;;;17.98;;
7985;SDS011;4038;42.612;23.066;2022-11-20T16:33:09;20.25;;;18.63;;
7985;SDS011;4038;42.612;23.066;2022-11-20T16:35:37;19.73;;;18.30;;
7985;SDS011;4038;42.612;23.066;2022-11-20T16:38:03;19.58;;;18.17;;
7985;SDS011;4038;42.612;23.066;2022-11-20T16:40:28;19.92;;;18.42;;
7985;SDS011;4038;42.612;23.066;2022-11-20T16:42:53;20.15;;;18.65;;
7985;SDS011;4038;42.612;23.066;2022-11-20T16:45:19;21.52;;;19.92;;
7985;SDS011;4038;42.612;23.066;2022-11-20T16:47:44;22.13;;;20.38;;
7985;SDS011;4038;42.612;23.066;2022-11-20T16:50:10;19.98;;;18.45;;
7985;SDS011;4038;42.612;23.066;2022-11-20T16:52:35;19.83;;;18.42;;
7985;SDS011;4038;42.612;23.066;2022-11-20T16:55:01;20.02;;;18.63;;
7985;SDS011;4038;42.612;23.066;2022-11-20T16:57:27;20.13;;;18.73;;